sensor_id;sensor_type;location;lat;lon;timestamp;temperature;humidity
3548;DHT22;1788;49.400;11.092;2024-03-29T00:01:37;8.30;58.10
3548;DHT22;1788;49.400;11.092;2024-03-29T00:04:04;8.30;58.10
3548;DHT22;1788;49.400;11.092;2024-03-29T00:06:31;8.30;58.10
3548;DHT22;1788;49.400;11.092;2024-03-29T00:08:57;8.30;58.10
3548;DHT22;1788;49.400;11.092;2024-03-29T00:11:24;8.30;57.80
3548;DHT22;1788;49.400;11.092;2024-03-29T00:13:50;8.30;58.10
3548;DHT22;1788;49.400;11.092;2024-03-29T00:16:17;8.30;58.10
3548;DHT22;1788;49.400;11.092;2024-03-29T00:18:43;8.30;58.10
3548;DHT22;1788;49.400;11.092;2024-03-29T00:21:10;8.30;58.10
3548;DHT22;1788;49.400;11.092;2024-03-29T00:23:37;8.30;58.10
3548;DHT22;1788;49.400;11.092;2024-03-29T00:26:03;8.30;58.10
3548;DHT22;1788;49.400;11.092;2024-03-29T00:28:30;8.20;58.10
3548;DHT22;1788;49.400;11.092;2024-03-29T00:30:56;8.20;58.10
3548;DHT22;1788;49.400;11.092;2024-03-29T00:33:23;8.20;58.10
3548;DHT22;1788;49.400;11.092;2024-03-29T00:35:50;8.20;58.10
3548;DHT22;1788;49.400;11.092;2024-03-29T00:38:16;8.20;58.10
3548;DHT22;1788;49.400;11.092;2024-03-29T00:40:43;8.30;58.20
3548;DHT22;1788;49.400;11.092;2024-03-29T00:43:10;8.30;58.20
3548;DHT22;1788;49.400;11.092;2024-03-29T00:45:36;8.30;58.20
3548;DHT22;1788;49.400;11.092;2024-03-29T00:48:04;8.30;58.70
3548;DHT22;1788;49.400;11.092;2024-03-29T00:50:30;8.30;58.10
3548;DHT22;1788;49.400;11.092;2024-03-29T00:52:57;8.30;58.10
3548;DHT22;1788;49.400;11.092;2024-03-29T00:55:23;8.30;58.10
3548;DHT22;1788;49.400;11.092;2024-03-29T00:57:50;8.40;58.10
3548;DHT22;1788;49.400;11.092;2024-03-29T01:00:17;8.40;58.00
3548;DHT22;1788;49.400;11.092;2024-03-29T01:02:43;8.40;58.00
3548;DHT22;1788;49.400;11.092;2024-03-29T01:05:10;8.40;57.90
3548;DHT22;1788;49.400;11.092;2024-03-29T01:07:39;8.40;57.90
3548;DHT22;1788;49.400;11.092;2024-03-29T01:10:04;8.40;57.90
3548;DHT22;1788;49.400;11.092;2024-03-29T01:12:30;8.40;57.80
3548;DHT22;1788;49.400;11.092;2024-03-29T01:14:57;8.40;57.80
3548;DHT22;1788;49.400;11.092;2024-03-29T01:17:24;8.40;57.80
3548;DHT22;1788;49.400;11.092;2024-03-29T01:19:50;8.40;57.80
3548;DHT22;1788;49.400;11.092;2024-03-29T01:22:17;8.40;57.80
3548;DHT22;1788;49.400;11.092;2024-03-29T01:24:43;8.50;57.80
3548;DHT22;1788;49.400;11.092;2024-03-29T01:27:11;8.50;57.80
3548;DHT22;1788;49.400;11.092;2024-03-29T01:29:38;8.50;57.70
3548;DHT22;1788;49.400;11.092;2024-03-29T01:32:05;8.40;57.70
3548;DHT22;1788;49.400;11.092;2024-03-29T01:34:32;8.50;57.70
3548;DHT22;1788;49.400;11.092;2024-03-29T01:36:59;8.50;57.70
3548;DHT22;1788;49.400;11.092;2024-03-29T01:39:25;8.50;57.70
3548;DHT22;1788;49.400;11.092;2024-03-29T01:41:52;8.60;57.70
3548;DHT22;1788;49.400;11.092;2024-03-29T01:44:19;8.60;57.60
3548;DHT22;1788;49.400;11.092;2024-03-29T01:46:45;8.60;57.60
3548;DHT22;1788;49.400;11.092;2024-03-29T01:49:12;8.60;57.50
3548;DHT22;1788;49.400;11.092;2024-03-29T01:51:38;8.60;57.50
3548;DHT22;1788;49.400;11.092;2024-03-29T01:54:06;8.60;57.60
3548;DHT22;1788;49.400;11.092;2024-03-29T01:56:32;8.60;57.40
3548;DHT22;1788;49.400;11.092;2024-03-29T01:58:59;8.60;57.40
3548;DHT22;1788;49.400;11.092;2024-03-29T02:01:26;8.60;57.30
3548;DHT22;1788;49.400;11.092;2024-03-29T02:03:52;8.60;57.40
3548;DHT22;1788;49.400;11.092;2024-03-29T02:06:19;8.60;57.40
3548;DHT22;1788;49.400;11.092;2024-03-29T02:08:46;8.60;57.30
3548;DHT22;1788;49.400;11.092;2024-03-29T02:11:12;8.60;57.40
3548;DHT22;1788;49.400;11.092;2024-03-29T02:13:39;8.60;57.50
3548;DHT22;1788;49.400;11.092;2024-03-29T02:16:07;8.60;57.30
3548;DHT22;1788;49.400;11.092;2024-03-29T02:18:33;8.60;57.30
3548;DHT22;1788;49.400;11.092;2024-03-29T02:21:01;8.60;57.20
3548;DHT22;1788;49.400;11.092;2024-03-29T02:23:27;8.60;57.20
3548;DHT22;1788;49.400;11.092;2024-03-29T02:25:54;8.60;57.10
3548;DHT22;1788;49.400;11.092;2024-03-29T02:28:21;8.60;57.10
3548;DHT22;1788;49.400;11.092;2024-03-29T02:30:47;8.60;57.00
3548;DHT22;1788;49.400;11.092;2024-03-29T02:33:14;8.70;57.10
3548;DHT22;1788;49.400;11.092;2024-03-29T02:35:40;8.70;57.00
3548;DHT22;1788;49.400;11.092;2024-03-29T02:38:07;8.70;57.00
3548;DHT22;1788;49.400;11.092;2024-03-29T02:40:34;8.70;56.80
3548;DHT22;1788;49.400;11.092;2024-03-29T02:43:01;8.70;56.80
3548;DHT22;1788;49.400;11.092;2024-03-29T02:45:28;8.80;56.80
3548;DHT22;1788;49.400;11.092;2024-03-29T02:47:54;8.80;56.80
3548;DHT22;1788;49.400;11.092;2024-03-29T02:50:21;8.80;56.70
3548;DHT22;1788;49.400;11.092;2024-03-29T02:52:47;8.90;56.70
3548;DHT22;1788;49.400;11.092;2024-03-29T02:55:14;8.90;56.70
3548;DHT22;1788;49.400;11.092;2024-03-29T02:57:41;8.90;56.60
3548;DHT22;1788;49.400;11.092;2024-03-29T03:00:08;8.90;56.50
3548;DHT22;1788;49.400;11.092;2024-03-29T03:05:01;8.90;56.40
3548;DHT22;1788;49.400;11.092;2024-03-29T03:07:28;8.90;56.40
3548;DHT22;1788;49.400;11.092;2024-03-29T03:09:54;8.90;56.30
3548;DHT22;1788;49.400;11.092;2024-03-29T03:12:21;8.90;56.30
3548;DHT22;1788;49.400;11.092;2024-03-29T03:14:48;8.90;56.20
3548;DHT22;1788;49.400;11.092;2024-03-29T03:17:14;8.90;56.20
3548;DHT22;1788;49.400;11.092;2024-03-29T03:19:42;8.90;56.10
3548;DHT22;1788;49.400;11.092;2024-03-29T03:22:08;8.90;56.10
3548;DHT22;1788;49.400;11.092;2024-03-29T03:24:35;8.90;56.10
3548;DHT22;1788;49.400;11.092;2024-03-29T03:27:01;8.90;56.00
3548;DHT22;1788;49.400;11.092;2024-03-29T03:29:28;8.90;56.00
3548;DHT22;1788;49.400;11.092;2024-03-29T03:31:55;8.90;56.00
3548;DHT22;1788;49.400;11.092;2024-03-29T03:34:21;9.00;56.00
3548;DHT22;1788;49.400;11.092;2024-03-29T03:36:48;8.90;55.90
3548;DHT22;1788;49.400;11.092;2024-03-29T03:39:16;9.00;56.00
3548;DHT22;1788;49.400;11.092;2024-03-29T03:41:42;9.00;55.80
3548;DHT22;1788;49.400;11.092;2024-03-29T03:44:11;9.00;55.70
3548;DHT22;1788;49.400;11.092;2024-03-29T03:46:37;9.00;55.60
3548;DHT22;1788;49.400;11.092;2024-03-29T03:49:04;9.00;55.50
3548;DHT22;1788;49.400;11.092;2024-03-29T03:51:30;9.00;55.50
3548;DHT22;1788;49.400;11.092;2024-03-29T03:53:57;9.00;55.50
3548;DHT22;1788;49.400;11.092;2024-03-29T03:56:24;9.00;55.40
3548;DHT22;1788;49.400;11.092;2024-03-29T03:58:51;9.00;55.40
3548;DHT22;1788;49.400;11.092;2024-03-29T04:01:18;9.00;55.40
3548;DHT22;1788;49.400;11.092;2024-03-29T04:03:44;9.00;55.30
3548;DHT22;1788;49.400;11.092;2024-03-29T04:06:11;9.00;55.30
3548;DHT22;1788;49.400;11.092;2024-03-29T04:08:37;9.00;55.30
3548;DHT22;1788;49.400;11.092;2024-03-29T04:11:05;9.10;55.10
3548;DHT22;1788;49.400;11.092;2024-03-29T04:13:32;9.10;55.20
3548;DHT22;1788;49.400;11.092;2024-03-29T04:18:26;9.10;55.10
3548;DHT22;1788;49.400;11.092;2024-03-29T04:23:21;9.10;55.00
3548;DHT22;1788;49.400;11.092;2024-03-29T04:28:14;9.10;54.90
3548;DHT22;1788;49.400;11.092;2024-03-29T04:30:41;9.10;54.90
3548;DHT22;1788;49.400;11.092;2024-03-29T04:33:07;9.10;54.70
3548;DHT22;1788;49.400;11.092;2024-03-29T04:35:35;9.10;54.90
3548;DHT22;1788;49.400;11.092;2024-03-29T04:38:02;9.10;54.60
3548;DHT22;1788;49.400;11.092;2024-03-29T04:40:29;9.20;54.50
3548;DHT22;1788;49.400;11.092;2024-03-29T04:42:56;9.20;54.50
3548;DHT22;1788;49.400;11.092;2024-03-29T04:45:22;9.20;54.40
3548;DHT22;1788;49.400;11.092;2024-03-29T04:47:49;9.20;54.40
3548;DHT22;1788;49.400;11.092;2024-03-29T04:50:16;9.20;54.30
3548;DHT22;1788;49.400;11.092;2024-03-29T04:52:42;9.30;54.30
3548;DHT22;1788;49.400;11.092;2024-03-29T04:55:09;9.30;54.20
3548;DHT22;1788;49.400;11.092;2024-03-29T04:57:36;9.30;54.20
3548;DHT22;1788;49.400;11.092;2024-03-29T05:00:02;9.30;54.10
3548;DHT22;1788;49.400;11.092;2024-03-29T05:02:30;9.30;54.10
3548;DHT22;1788;49.400;11.092;2024-03-29T05:04:57;9.40;54.10
3548;DHT22;1788;49.400;11.092;2024-03-29T05:07:23;9.40;54.10
3548;DHT22;1788;49.400;11.092;2024-03-29T05:09:50;9.40;54.00
3548;DHT22;1788;49.400;11.092;2024-03-29T05:12:17;9.40;54.00
3548;DHT22;1788;49.400;11.092;2024-03-29T05:14:44;9.40;54.50
3548;DHT22;1788;49.400;11.092;2024-03-29T05:17:11;9.40;54.00
3548;DHT22;1788;49.400;11.092;2024-03-29T05:19:38;9.40;54.00
3548;DHT22;1788;49.400;11.092;2024-03-29T05:22:04;9.40;54.00
3548;DHT22;1788;49.400;11.092;2024-03-29T05:24:31;9.50;54.00
3548;DHT22;1788;49.400;11.092;2024-03-29T05:26:58;9.50;54.00
3548;DHT22;1788;49.400;11.092;2024-03-29T05:29:25;9.50;54.00
3548;DHT22;1788;49.400;11.092;2024-03-29T05:31:52;9.50;54.50
3548;DHT22;1788;49.400;11.092;2024-03-29T05:34:19;9.50;53.90
3548;DHT22;1788;49.400;11.092;2024-03-29T05:36:47;9.50;53.80
3548;DHT22;1788;49.400;11.092;2024-03-29T05:39:14;9.60;53.70
3548;DHT22;1788;49.400;11.092;2024-03-29T05:41:41;9.50;53.60
3548;DHT22;1788;49.400;11.092;2024-03-29T05:44:07;9.60;53.60
3548;DHT22;1788;49.400;11.092;2024-03-29T05:46:34;9.60;53.60
3548;DHT22;1788;49.400;11.092;2024-03-29T05:49:00;9.70;53.60
3548;DHT22;1788;49.400;11.092;2024-03-29T05:51:28;9.70;54.00
3548;DHT22;1788;49.400;11.092;2024-03-29T05:53:55;9.80;53.60
3548;DHT22;1788;49.400;11.092;2024-03-29T05:56:22;9.80;53.60
3548;DHT22;1788;49.400;11.092;2024-03-29T05:58:49;9.80;53.50
3548;DHT22;1788;49.400;11.092;2024-03-29T06:01:16;9.80;53.50
3548;DHT22;1788;49.400;11.092;2024-03-29T06:03:42;9.80;53.50
3548;DHT22;1788;49.400;11.092;2024-03-29T06:06:09;9.80;53.40
3548;DHT22;1788;49.400;11.092;2024-03-29T06:08:36;9.80;53.30
3548;DHT22;1788;49.400;11.092;2024-03-29T06:11:02;9.90;53.30
3548;DHT22;1788;49.400;11.092;2024-03-29T06:13:29;9.90;53.30
3548;DHT22;1788;49.400;11.092;2024-03-29T06:15:56;9.90;53.30
3548;DHT22;1788;49.400;11.092;2024-03-29T06:18:22;9.90;53.30
3548;DHT22;1788;49.400;11.092;2024-03-29T06:20:49;10.00;52.50
3548;DHT22;1788;49.400;11.092;2024-03-29T06:23:17;10.10;52.50
3548;DHT22;1788;49.400;11.092;2024-03-29T06:25:44;10.10;52.40
3548;DHT22;1788;49.400;11.092;2024-03-29T06:28:10;10.10;52.20
3548;DHT22;1788;49.400;11.092;2024-03-29T06:30:37;10.10;52.10
3548;DHT22;1788;49.400;11.092;2024-03-29T06:33:04;10.10;52.00
3548;DHT22;1788;49.400;11.092;2024-03-29T06:35:30;10.10;51.90
3548;DHT22;1788;49.400;11.092;2024-03-29T06:37:58;10.10;52.00
3548;DHT22;1788;49.400;11.092;2024-03-29T06:40:24;10.10;51.90
3548;DHT22;1788;49.400;11.092;2024-03-29T06:42:51;10.10;51.90
3548;DHT22;1788;49.400;11.092;2024-03-29T06:45:18;10.10;51.80
3548;DHT22;1788;49.400;11.092;2024-03-29T06:47:44;10.10;51.80
3548;DHT22;1788;49.400;11.092;2024-03-29T06:50:11;10.10;51.80
3548;DHT22;1788;49.400;11.092;2024-03-29T06:52:38;10.20;51.80
3548;DHT22;1788;49.400;11.092;2024-03-29T06:55:05;10.20;51.80
3548;DHT22;1788;49.400;11.092;2024-03-29T06:57:32;10.30;52.00
3548;DHT22;1788;49.400;11.092;2024-03-29T06:59:59;10.30;51.70
3548;DHT22;1788;49.400;11.092;2024-03-29T07:02:25;10.40;51.90
3548;DHT22;1788;49.400;11.092;2024-03-29T07:04:52;10.60;52.40
3548;DHT22;1788;49.400;11.092;2024-03-29T07:07:19;10.70;52.20
3548;DHT22;1788;49.400;11.092;2024-03-29T07:09:46;10.80;51.90
3548;DHT22;1788;49.400;11.092;2024-03-29T07:12:13;10.80;51.80
3548;DHT22;1788;49.400;11.092;2024-03-29T07:14:40;10.90;51.80
3548;DHT22;1788;49.400;11.092;2024-03-29T07:17:07;11.00;51.70
3548;DHT22;1788;49.400;11.092;2024-03-29T07:19:35;11.00;51.40
3548;DHT22;1788;49.400;11.092;2024-03-29T07:22:01;11.00;51.40
3548;DHT22;1788;49.400;11.092;2024-03-29T07:24:28;11.20;51.50
3548;DHT22;1788;49.400;11.092;2024-03-29T07:26:54;11.30;51.30
3548;DHT22;1788;49.400;11.092;2024-03-29T07:29:21;11.40;51.30
3548;DHT22;1788;49.400;11.092;2024-03-29T07:31:48;11.50;51.10
3548;DHT22;1788;49.400;11.092;2024-03-29T07:34:14;11.70;51.10
3548;DHT22;1788;49.400;11.092;2024-03-29T07:36:41;11.90;51.00
3548;DHT22;1788;49.400;11.092;2024-03-29T07:39:07;12.10;51.00
3548;DHT22;1788;49.400;11.092;2024-03-29T07:41:35;12.40;50.50
3548;DHT22;1788;49.400;11.092;2024-03-29T07:44:01;12.40;50.50
3548;DHT22;1788;49.400;11.092;2024-03-29T07:46:28;12.60;50.40
3548;DHT22;1788;49.400;11.092;2024-03-29T07:48:55;12.70;50.60
3548;DHT22;1788;49.400;11.092;2024-03-29T07:51:21;12.80;50.10
3548;DHT22;1788;49.400;11.092;2024-03-29T07:53:48;12.80;49.80
3548;DHT22;1788;49.400;11.092;2024-03-29T07:56:14;12.90;49.60
3548;DHT22;1788;49.400;11.092;2024-03-29T07:58:41;12.90;49.40
3548;DHT22;1788;49.400;11.092;2024-03-29T08:01:08;13.00;49.30
3548;DHT22;1788;49.400;11.092;2024-03-29T08:03:35;13.00;49.20
3548;DHT22;1788;49.400;11.092;2024-03-29T08:06:02;13.10;49.10
3548;DHT22;1788;49.400;11.092;2024-03-29T08:08:30;13.20;49.00
3548;DHT22;1788;49.400;11.092;2024-03-29T08:10:57;13.20;48.90
3548;DHT22;1788;49.400;11.092;2024-03-29T08:13:23;13.30;48.90
3548;DHT22;1788;49.400;11.092;2024-03-29T08:15:55;13.50;48.80
3548;DHT22;1788;49.400;11.092;2024-03-29T08:18:18;13.60;48.60
3548;DHT22;1788;49.400;11.092;2024-03-29T08:20:45;13.80;48.30
3548;DHT22;1788;49.400;11.092;2024-03-29T08:23:12;13.80;48.10
3548;DHT22;1788;49.400;11.092;2024-03-29T08:25:39;13.90;47.90
3548;DHT22;1788;49.400;11.092;2024-03-29T08:28:05;14.00;47.70
3548;DHT22;1788;49.400;11.092;2024-03-29T08:30:32;14.10;47.50
3548;DHT22;1788;49.400;11.092;2024-03-29T08:32:59;14.20;47.40
3548;DHT22;1788;49.400;11.092;2024-03-29T08:35:25;14.20;47.30
3548;DHT22;1788;49.400;11.092;2024-03-29T08:37:52;14.20;47.70
3548;DHT22;1788;49.400;11.092;2024-03-29T08:40:18;14.20;47.00
3548;DHT22;1788;49.400;11.092;2024-03-29T08:42:46;14.30;47.60
3548;DHT22;1788;49.400;11.092;2024-03-29T08:45:12;14.30;47.50
3548;DHT22;1788;49.400;11.092;2024-03-29T08:47:40;14.40;47.50
3548;DHT22;1788;49.400;11.092;2024-03-29T08:50:07;14.40;47.50
3548;DHT22;1788;49.400;11.092;2024-03-29T08:52:35;14.30;46.70
3548;DHT22;1788;49.400;11.092;2024-03-29T08:55:02;14.20;47.10
3548;DHT22;1788;49.400;11.092;2024-03-29T08:57:28;14.20;47.10
3548;DHT22;1788;49.400;11.092;2024-03-29T08:59:55;14.00;47.00
3548;DHT22;1788;49.400;11.092;2024-03-29T09:02:22;13.90;47.20
3548;DHT22;1788;49.400;11.092;2024-03-29T09:04:48;13.80;47.40
3548;DHT22;1788;49.400;11.092;2024-03-29T09:07:15;13.50;47.70
3548;DHT22;1788;49.400;11.092;2024-03-29T09:09:43;13.60;47.70
3548;DHT22;1788;49.400;11.092;2024-03-29T09:12:10;13.50;48.00
3548;DHT22;1788;49.400;11.092;2024-03-29T09:14:38;13.30;48.10
3548;DHT22;1788;49.400;11.092;2024-03-29T09:17:05;13.20;48.90
3548;DHT22;1788;49.400;11.092;2024-03-29T09:19:31;13.10;48.80
3548;DHT22;1788;49.400;11.092;2024-03-29T09:21:59;13.10;49.30
3548;DHT22;1788;49.400;11.092;2024-03-29T09:24:25;13.00;49.70
3548;DHT22;1788;49.400;11.092;2024-03-29T09:26:52;12.90;50.00
3548;DHT22;1788;49.400;11.092;2024-03-29T09:29:20;12.80;50.80
3548;DHT22;1788;49.400;11.092;2024-03-29T09:31:48;12.80;50.80
3548;DHT22;1788;49.400;11.092;2024-03-29T09:34:15;12.70;51.10
3548;DHT22;1788;49.400;11.092;2024-03-29T09:36:42;12.60;51.40
3548;DHT22;1788;49.400;11.092;2024-03-29T09:39:09;12.60;51.80
3548;DHT22;1788;49.400;11.092;2024-03-29T09:41:36;12.50;52.10
3548;DHT22;1788;49.400;11.092;2024-03-29T09:44:03;12.50;52.50
3548;DHT22;1788;49.400;11.092;2024-03-29T09:46:29;12.50;52.90
3548;DHT22;1788;49.400;11.092;2024-03-29T09:48:57;12.40;53.40
3548;DHT22;1788;49.400;11.092;2024-03-29T09:51:23;12.40;53.40
3548;DHT22;1788;49.400;11.092;2024-03-29T09:53:50;12.40;53.70
3548;DHT22;1788;49.400;11.092;2024-03-29T09:56:17;12.40;54.00
3548;DHT22;1788;49.400;11.092;2024-03-29T09:58:44;12.40;55.10
3548;DHT22;1788;49.400;11.092;2024-03-29T10:01:11;12.40;54.60
3548;DHT22;1788;49.400;11.092;2024-03-29T10:06:04;12.30;55.00
3548;DHT22;1788;49.400;11.092;2024-03-29T10:08:32;12.30;55.40
3548;DHT22;1788;49.400;11.092;2024-03-29T10:11:00;12.30;55.70
3548;DHT22;1788;49.400;11.092;2024-03-29T10:13:26;12.40;56.00
3548;DHT22;1788;49.400;11.092;2024-03-29T10:15:53;12.50;56.30
3548;DHT22;1788;49.400;11.092;2024-03-29T10:18:19;12.50;56.50
3548;DHT22;1788;49.400;11.092;2024-03-29T10:20:46;12.60;56.70
3548;DHT22;1788;49.400;11.092;2024-03-29T10:23:14;12.60;56.90
3548;DHT22;1788;49.400;11.092;2024-03-29T10:25:42;12.70;57.20
3548;DHT22;1788;49.400;11.092;2024-03-29T10:28:08;12.80;57.40
3548;DHT22;1788;49.400;11.092;2024-03-29T10:30:34;12.90;57.50
3548;DHT22;1788;49.400;11.092;2024-03-29T10:33:01;13.00;57.60
3548;DHT22;1788;49.400;11.092;2024-03-29T10:35:28;13.10;57.80
3548;DHT22;1788;49.400;11.092;2024-03-29T10:37:55;13.10;57.80
3548;DHT22;1788;49.400;11.092;2024-03-29T10:40:22;13.20;58.20
3548;DHT22;1788;49.400;11.092;2024-03-29T10:42:49;13.30;58.40
3548;DHT22;1788;49.400;11.092;2024-03-29T10:45:16;13.30;58.50
3548;DHT22;1788;49.400;11.092;2024-03-29T10:47:43;13.40;59.20
3548;DHT22;1788;49.400;11.092;2024-03-29T10:50:11;13.50;58.80
3548;DHT22;1788;49.400;11.092;2024-03-29T10:52:38;13.50;58.80
3548;DHT22;1788;49.400;11.092;2024-03-29T10:55:04;13.50;58.90
3548;DHT22;1788;49.400;11.092;2024-03-29T10:57:31;13.50;59.10
3548;DHT22;1788;49.400;11.092;2024-03-29T11:04:52;13.50;59.20
3548;DHT22;1788;49.400;11.092;2024-03-29T11:07:19;13.50;59.20
3548;DHT22;1788;49.400;11.092;2024-03-29T11:09:45;13.40;59.20
3548;DHT22;1788;49.400;11.092;2024-03-29T11:12:11;13.30;59.20
3548;DHT22;1788;49.400;11.092;2024-03-29T11:17:06;13.20;59.30
3548;DHT22;1788;49.400;11.092;2024-03-29T11:19:33;13.00;59.50
3548;DHT22;1788;49.400;11.092;2024-03-29T11:21:59;13.00;59.50
3548;DHT22;1788;49.400;11.092;2024-03-29T11:24:26;13.00;59.60
3548;DHT22;1788;49.400;11.092;2024-03-29T11:26:53;12.90;59.60
3548;DHT22;1788;49.400;11.092;2024-03-29T11:29:20;12.90;59.60
3548;DHT22;1788;49.400;11.092;2024-03-29T11:31:46;12.90;59.70
3548;DHT22;1788;49.400;11.092;2024-03-29T11:34:12;12.80;59.70
3548;DHT22;1788;49.400;11.092;2024-03-29T11:36:39;12.90;59.90
3548;DHT22;1788;49.400;11.092;2024-03-29T11:39:06;12.90;59.90
3548;DHT22;1788;49.400;11.092;2024-03-29T11:41:33;12.80;59.60
3548;DHT22;1788;49.400;11.092;2024-03-29T11:44:00;12.80;59.80
3548;DHT22;1788;49.400;11.092;2024-03-29T11:46:26;12.90;59.90
3548;DHT22;1788;49.400;11.092;2024-03-29T11:48:53;12.90;59.90
3548;DHT22;1788;49.400;11.092;2024-03-29T11:51:20;13.00;60.00
3548;DHT22;1788;49.400;11.092;2024-03-29T11:53:47;13.10;59.80
3548;DHT22;1788;49.400;11.092;2024-03-29T11:56:14;13.10;59.80
3548;DHT22;1788;49.400;11.092;2024-03-29T11:58:40;13.20;59.80
3548;DHT22;1788;49.400;11.092;2024-03-29T12:01:07;13.30;59.70
3548;DHT22;1788;49.400;11.092;2024-03-29T12:03:37;13.40;59.70
3548;DHT22;1788;49.400;11.092;2024-03-29T12:06:01;13.40;59.50
3548;DHT22;1788;49.400;11.092;2024-03-29T12:08:29;13.50;59.50
3548;DHT22;1788;49.400;11.092;2024-03-29T12:10:54;13.50;59.40
3548;DHT22;1788;49.400;11.092;2024-03-29T12:13:21;13.60;59.40
3548;DHT22;1788;49.400;11.092;2024-03-29T12:15:48;13.70;59.40
3548;DHT22;1788;49.400;11.092;2024-03-29T12:18:14;13.70;59.30
3548;DHT22;1788;49.400;11.092;2024-03-29T12:20:42;13.90;59.30
3548;DHT22;1788;49.400;11.092;2024-03-29T12:23:09;13.90;59.30
3548;DHT22;1788;49.400;11.092;2024-03-29T12:25:36;14.30;59.20
3548;DHT22;1788;49.400;11.092;2024-03-29T12:28:02;14.20;59.00
3548;DHT22;1788;49.400;11.092;2024-03-29T12:30:30;14.60;58.60
3548;DHT22;1788;49.400;11.092;2024-03-29T12:35:24;15.20;58.30
3548;DHT22;1788;49.400;11.092;2024-03-29T12:37:50;15.20;58.30
3548;DHT22;1788;49.400;11.092;2024-03-29T12:40:18;16.10;57.80
3548;DHT22;1788;49.400;11.092;2024-03-29T12:42:44;16.00;58.20
3548;DHT22;1788;49.400;11.092;2024-03-29T12:45:13;17.20;56.10
3548;DHT22;1788;49.400;11.092;2024-03-29T12:47:39;17.20;56.10
3548;DHT22;1788;49.400;11.092;2024-03-29T12:50:06;18.00;55.20
3548;DHT22;1788;49.400;11.092;2024-03-29T12:55:00;19.20;53.40
3548;DHT22;1788;49.400;11.092;2024-03-29T12:57:26;19.80;52.80
3548;DHT22;1788;49.400;11.092;2024-03-29T12:59:53;20.50;52.20
3548;DHT22;1788;49.400;11.092;2024-03-29T13:02:20;20.90;51.40
3548;DHT22;1788;49.400;11.092;2024-03-29T13:04:46;20.80;50.90
3548;DHT22;1788;49.400;11.092;2024-03-29T13:07:13;20.60;50.80
3548;DHT22;1788;49.400;11.092;2024-03-29T13:09:39;20.20;50.70
3548;DHT22;1788;49.400;11.092;2024-03-29T13:12:07;19.80;50.90
3548;DHT22;1788;49.400;11.092;2024-03-29T13:14:34;19.50;51.20
3548;DHT22;1788;49.400;11.092;2024-03-29T13:17:01;19.20;51.40
3548;DHT22;1788;49.400;11.092;2024-03-29T13:19:28;18.80;51.60
3548;DHT22;1788;49.400;11.092;2024-03-29T13:21:55;18.80;51.50
3548;DHT22;1788;49.400;11.092;2024-03-29T13:24:21;18.60;51.60
3548;DHT22;1788;49.400;11.092;2024-03-29T13:26:48;18.50;51.70
3548;DHT22;1788;49.400;11.092;2024-03-29T13:29:14;18.40;51.60
3548;DHT22;1788;49.400;11.092;2024-03-29T13:31:42;18.10;51.50
3548;DHT22;1788;49.400;11.092;2024-03-29T13:34:09;18.10;51.50
3548;DHT22;1788;49.400;11.092;2024-03-29T13:36:36;18.10;51.60
3548;DHT22;1788;49.400;11.092;2024-03-29T13:39:04;18.10;51.50
3548;DHT22;1788;49.400;11.092;2024-03-29T13:41:31;18.20;51.50
3548;DHT22;1788;49.400;11.092;2024-03-29T13:43:57;18.30;51.50
3548;DHT22;1788;49.400;11.092;2024-03-29T13:46:24;18.60;51.30
3548;DHT22;1788;49.400;11.092;2024-03-29T13:48:51;19.00;50.70
3548;DHT22;1788;49.400;11.092;2024-03-29T13:51:18;19.00;50.70
3548;DHT22;1788;49.400;11.092;2024-03-29T13:53:44;19.20;50.60
3548;DHT22;1788;49.400;11.092;2024-03-29T13:56:11;19.40;50.40
3548;DHT22;1788;49.400;11.092;2024-03-29T13:58:38;19.50;50.10
3548;DHT22;1788;49.400;11.092;2024-03-29T14:01:05;19.80;49.60
3548;DHT22;1788;49.400;11.092;2024-03-29T14:03:32;19.80;49.60
3548;DHT22;1788;49.400;11.092;2024-03-29T14:06:00;20.50;49.60
3548;DHT22;1788;49.400;11.092;2024-03-29T14:08:26;20.50;49.00
3548;DHT22;1788;49.400;11.092;2024-03-29T14:10:53;20.90;48.50
3548;DHT22;1788;49.400;11.092;2024-03-29T14:13:20;21.10;48.40
3548;DHT22;1788;49.400;11.092;2024-03-29T14:15:47;21.10;48.10
3548;DHT22;1788;49.400;11.092;2024-03-29T14:18:13;21.00;48.00
3548;DHT22;1788;49.400;11.092;2024-03-29T14:20:40;20.90;48.00
3548;DHT22;1788;49.400;11.092;2024-03-29T14:23:07;21.00;47.90
3548;DHT22;1788;49.400;11.092;2024-03-29T14:25:34;21.30;47.40
3548;DHT22;1788;49.400;11.092;2024-03-29T14:28:01;21.30;47.40
3548;DHT22;1788;49.400;11.092;2024-03-29T14:30:28;21.00;47.50
3548;DHT22;1788;49.400;11.092;2024-03-29T14:32:55;21.00;47.50
3548;DHT22;1788;49.400;11.092;2024-03-29T14:35:22;21.00;47.70
3548;DHT22;1788;49.400;11.092;2024-03-29T14:37:49;21.50;47.40
3548;DHT22;1788;49.400;11.092;2024-03-29T14:40:15;22.50;46.60
3548;DHT22;1788;49.400;11.092;2024-03-29T14:42:42;23.40;45.50
3548;DHT22;1788;49.400;11.092;2024-03-29T14:45:09;24.30;44.70
3548;DHT22;1788;49.400;11.092;2024-03-29T14:47:35;24.50;44.10
3548;DHT22;1788;49.400;11.092;2024-03-29T14:50:02;24.40;44.00
3548;DHT22;1788;49.400;11.092;2024-03-29T14:52:29;24.60;44.00
3548;DHT22;1788;49.400;11.092;2024-03-29T14:54:56;24.60;43.90
3548;DHT22;1788;49.400;11.092;2024-03-29T14:57:23;25.10;43.30
3548;DHT22;1788;49.400;11.092;2024-03-29T14:59:50;25.10;43.30
3548;DHT22;1788;49.400;11.092;2024-03-29T15:02:17;25.00;43.10
3548;DHT22;1788;49.400;11.092;2024-03-29T15:04:44;25.00;43.10
3548;DHT22;1788;49.400;11.092;2024-03-29T15:07:10;24.90;43.00
3548;DHT22;1788;49.400;11.092;2024-03-29T15:09:38;24.90;42.90
3548;DHT22;1788;49.400;11.092;2024-03-29T15:12:05;24.60;42.80
3548;DHT22;1788;49.400;11.092;2024-03-29T15:14:32;24.60;42.80
3548;DHT22;1788;49.400;11.092;2024-03-29T15:16:59;24.40;42.80
3548;DHT22;1788;49.400;11.092;2024-03-29T15:19:26;24.20;42.80
3548;DHT22;1788;49.400;11.092;2024-03-29T15:21:52;24.20;42.80
3548;DHT22;1788;49.400;11.092;2024-03-29T15:24:19;24.10;42.80
3548;DHT22;1788;49.400;11.092;2024-03-29T15:26:45;24.00;42.80
3548;DHT22;1788;49.400;11.092;2024-03-29T15:29:13;23.90;42.70
3548;DHT22;1788;49.400;11.092;2024-03-29T15:31:41;23.50;42.80
3548;DHT22;1788;49.400;11.092;2024-03-29T15:34:07;23.50;42.80
3548;DHT22;1788;49.400;11.092;2024-03-29T15:36:35;23.10;42.90
3548;DHT22;1788;49.400;11.092;2024-03-29T15:39:02;23.10;42.90
3548;DHT22;1788;49.400;11.092;2024-03-29T15:41:28;23.00;43.00
3548;DHT22;1788;49.400;11.092;2024-03-29T15:43:55;22.70;43.00
3548;DHT22;1788;49.400;11.092;2024-03-29T15:46:21;22.60;43.10
3548;DHT22;1788;49.400;11.092;2024-03-29T15:48:48;22.30;43.10
3548;DHT22;1788;49.400;11.092;2024-03-29T15:51:14;22.10;43.30
3548;DHT22;1788;49.400;11.092;2024-03-29T15:53:41;21.80;43.40
3548;DHT22;1788;49.400;11.092;2024-03-29T15:56:08;21.50;43.50
3548;DHT22;1788;49.400;11.092;2024-03-29T15:58:36;21.00;43.90
3548;DHT22;1788;49.400;11.092;2024-03-29T16:01:03;21.00;43.90
3548;DHT22;1788;49.400;11.092;2024-03-29T16:03:30;20.50;44.20
3548;DHT22;1788;49.400;11.092;2024-03-29T16:05:56;20.50;44.20
3548;DHT22;1788;49.400;11.092;2024-03-29T16:08:24;20.10;44.60
3548;DHT22;1788;49.400;11.092;2024-03-29T16:13:20;19.90;44.80
3548;DHT22;1788;49.400;11.092;2024-03-29T16:15:46;19.80;45.00